sensor_id;sensor_type;location;lat;lon;timestamp;temperature;humidity
70079;DHT22;57451;52.496;13.456;2022-07-29T00:00:54;18.50;48.80
70079;DHT22;57451;52.496;13.456;2022-07-29T00:03:20;18.40;49.30
70079;DHT22;57451;52.496;13.456;2022-07-29T00:05:46;18.40;49.50
70079;DHT22;57451;52.496;13.456;2022-07-29T00:08:13;18.40;49.70
70079;DHT22;57451;52.496;13.456;2022-07-29T00:10:41;18.30;49.40
70079;DHT22;57451;52.496;13.456;2022-07-29T00:13:07;18.30;49.10
70079;DHT22;57451;52.496;13.456;2022-07-29T00:15:34;18.30;49.70
70079;DHT22;57451;52.496;13.456;2022-07-29T00:18:00;18.30;50.20
70079;DHT22;57451;52.496;13.456;2022-07-29T00:20:27;18.30;49.80
70079;DHT22;57451;52.496;13.456;2022-07-29T00:22:53;18.30;50.60
70079;DHT22;57451;52.496;13.456;2022-07-29T00:25:20;18.20;50.50
70079;DHT22;57451;52.496;13.456;2022-07-29T00:27:46;18.20;50.00
70079;DHT22;57451;52.496;13.456;2022-07-29T00:30:13;18.20;50.40
70079;DHT22;57451;52.496;13.456;2022-07-29T00:32:39;18.10;50.60
70079;DHT22;57451;52.496;13.456;2022-07-29T00:35:06;18.10;50.50
70079;DHT22;57451;52.496;13.456;2022-07-29T00:37:51;18.10;50.80
70079;DHT22;57451;52.496;13.456;2022-07-29T00:40:17;18.10;51.10
70079;DHT22;57451;52.496;13.456;2022-07-29T00:42:46;18.00;50.80
70079;DHT22;57451;52.496;13.456;2022-07-29T00:45:13;18.00;51.40
70079;DHT22;57451;52.496;13.456;2022-07-29T00:47:39;18.00;51.40
70079;DHT22;57451;52.496;13.456;2022-07-29T00:50:07;18.00;51.70
70079;DHT22;57451;52.496;13.456;2022-07-29T00:52:36;17.90;51.90
70079;DHT22;57451;52.496;13.456;2022-07-29T00:55:02;17.90;51.80
70079;DHT22;57451;52.496;13.456;2022-07-29T00:57:29;17.90;52.30
70079;DHT22;57451;52.496;13.456;2022-07-29T00:59:56;17.90;52.30
70079;DHT22;57451;52.496;13.456;2022-07-29T01:02:22;17.90;51.80
70079;DHT22;57451;52.496;13.456;2022-07-29T01:04:49;17.90;51.90
70079;DHT22;57451;52.496;13.456;2022-07-29T01:07:16;17.80;52.40
70079;DHT22;57451;52.496;13.456;2022-07-29T01:09:43;17.80;52.40
70079;DHT22;57451;52.496;13.456;2022-07-29T01:12:11;17.80;51.80
70079;DHT22;57451;52.496;13.456;2022-07-29T01:14:39;17.70;52.60
70079;DHT22;57451;52.496;13.456;2022-07-29T01:17:12;17.70;52.40
70079;DHT22;57451;52.496;13.456;2022-07-29T01:19:48;17.70;53.20
70079;DHT22;57451;52.496;13.456;2022-07-29T01:22:28;17.70;52.40
70079;DHT22;57451;52.496;13.456;2022-07-29T01:25:17;17.60;52.70
70079;DHT22;57451;52.496;13.456;2022-07-29T01:27:57;17.60;52.90
70079;DHT22;57451;52.496;13.456;2022-07-29T01:30:32;17.60;52.80
70079;DHT22;57451;52.496;13.456;2022-07-29T01:33:04;17.60;52.70
70079;DHT22;57451;52.496;13.456;2022-07-29T01:35:35;17.50;53.00
70079;DHT22;57451;52.496;13.456;2022-07-29T01:38:06;17.50;53.20
70079;DHT22;57451;52.496;13.456;2022-07-29T01:40:37;17.50;53.40
70079;DHT22;57451;52.496;13.456;2022-07-29T01:43:10;17.50;53.40
70079;DHT22;57451;52.496;13.456;2022-07-29T01:45:40;17.50;54.00
70079;DHT22;57451;52.496;13.456;2022-07-29T01:48:11;17.40;53.80
70079;DHT22;57451;52.496;13.456;2022-07-29T01:50:52;17.40;53.90
70079;DHT22;57451;52.496;13.456;2022-07-29T01:53:24;17.40;53.80
70079;DHT22;57451;52.496;13.456;2022-07-29T01:55:52;17.30;54.00
70079;DHT22;57451;52.496;13.456;2022-07-29T01:58:19;17.40;54.10
70079;DHT22;57451;52.496;13.456;2022-07-29T02:00:48;17.40;54.20
70079;DHT22;57451;52.496;13.456;2022-07-29T02:03:16;17.30;54.00
70079;DHT22;57451;52.496;13.456;2022-07-29T02:05:45;17.30;53.90
70079;DHT22;57451;52.496;13.456;2022-07-29T02:08:13;17.30;54.10
70079;DHT22;57451;52.496;13.456;2022-07-29T02:10:42;17.30;54.40
70079;DHT22;57451;52.496;13.456;2022-07-29T02:13:10;17.30;54.10
70079;DHT22;57451;52.496;13.456;2022-07-29T02:15:37;17.30;53.60
70079;DHT22;57451;52.496;13.456;2022-07-29T02:18:08;17.30;53.90
70079;DHT22;57451;52.496;13.456;2022-07-29T02:20:36;17.20;54.00
70079;DHT22;57451;52.496;13.456;2022-07-29T02:23:04;17.20;54.20
70079;DHT22;57451;52.496;13.456;2022-07-29T02:25:31;17.20;53.70
70079;DHT22;57451;52.496;13.456;2022-07-29T02:27:59;17.20;54.20
70079;DHT22;57451;52.496;13.456;2022-07-29T02:30:27;17.20;54.80
70079;DHT22;57451;52.496;13.456;2022-07-29T02:32:55;17.10;54.60
70079;DHT22;57451;52.496;13.456;2022-07-29T02:35:23;17.10;54.60
70079;DHT22;57451;52.496;13.456;2022-07-29T02:37:51;17.10;54.50
70079;DHT22;57451;52.496;13.456;2022-07-29T02:40:38;17.10;54.40
70079;DHT22;57451;52.496;13.456;2022-07-29T02:43:06;17.10;54.20
70079;DHT22;57451;52.496;13.456;2022-07-29T02:45:34;17.10;54.80
70079;DHT22;57451;52.496;13.456;2022-07-29T02:48:06;17.10;54.70
70079;DHT22;57451;52.496;13.456;2022-07-29T02:50:38;17.10;54.80
70079;DHT22;57451;52.496;13.456;2022-07-29T02:53:09;17.00;54.20
70079;DHT22;57451;52.496;13.456;2022-07-29T02:55:40;17.00;55.20
70079;DHT22;57451;52.496;13.456;2022-07-29T02:58:15;17.00;55.30
70079;DHT22;57451;52.496;13.456;2022-07-29T03:00:47;17.00;55.00
70079;DHT22;57451;52.496;13.456;2022-07-29T03:03:16;17.00;54.90
70079;DHT22;57451;52.496;13.456;2022-07-29T03:05:44;17.00;54.80
70079;DHT22;57451;52.496;13.456;2022-07-29T03:08:11;17.00;54.60
70079;DHT22;57451;52.496;13.456;2022-07-29T03:10:42;17.00;54.80
70079;DHT22;57451;52.496;13.456;2022-07-29T03:13:09;17.00;54.70
70079;DHT22;57451;52.496;13.456;2022-07-29T03:15:36;17.00;54.70
70079;DHT22;57451;52.496;13.456;2022-07-29T03:18:03;17.00;54.60
70079;DHT22;57451;52.496;13.456;2022-07-29T03:20:29;17.00;54.80
70079;DHT22;57451;52.496;13.456;2022-07-29T03:22:57;17.00;54.70
70079;DHT22;57451;52.496;13.456;2022-07-29T03:25:23;17.00;54.90
70079;DHT22;57451;52.496;13.456;2022-07-29T03:27:49;17.00;54.20
70079;DHT22;57451;52.496;13.456;2022-07-29T03:30:15;17.00;54.70
70079;DHT22;57451;52.496;13.456;2022-07-29T03:32:42;17.00;54.70
70079;DHT22;57451;52.496;13.456;2022-07-29T03:35:08;16.90;55.10
70079;DHT22;57451;52.496;13.456;2022-07-29T03:37:35;16.90;55.10
70079;DHT22;57451;52.496;13.456;2022-07-29T03:40:07;16.90;55.00
70079;DHT22;57451;52.496;13.456;2022-07-29T03:42:37;16.90;55.50
70079;DHT22;57451;52.496;13.456;2022-07-29T03:45:07;16.90;55.30
70079;DHT22;57451;52.496;13.456;2022-07-29T03:47:40;16.90;55.40
70079;DHT22;57451;52.496;13.456;2022-07-29T03:50:10;16.90;55.30
70079;DHT22;57451;52.496;13.456;2022-07-29T03:52:37;16.90;55.10
70079;DHT22;57451;52.496;13.456;2022-07-29T03:55:06;16.90;55.40
70079;DHT22;57451;52.496;13.456;2022-07-29T03:57:33;16.90;54.90
70079;DHT22;57451;52.496;13.456;2022-07-29T04:00:02;16.90;55.50
70079;DHT22;57451;52.496;13.456;2022-07-29T04:02:30;16.90;55.80
70079;DHT22;57451;52.496;13.456;2022-07-29T04:04:57;16.90;55.60
70079;DHT22;57451;52.496;13.456;2022-07-29T04:07:23;16.80;55.70
70079;DHT22;57451;52.496;13.456;2022-07-29T04:09:49;16.90;55.40
70079;DHT22;57451;52.496;13.456;2022-07-29T04:12:17;16.90;55.20
70079;DHT22;57451;52.496;13.456;2022-07-29T04:14:43;16.80;56.00
70079;DHT22;57451;52.496;13.456;2022-07-29T04:17:09;16.90;55.70
70079;DHT22;57451;52.496;13.456;2022-07-29T04:19:35;16.90;55.60
70079;DHT22;57451;52.496;13.456;2022-07-29T04:22:01;16.90;55.70
70079;DHT22;57451;52.496;13.456;2022-07-29T04:24:28;16.90;55.90
70079;DHT22;57451;52.496;13.456;2022-07-29T04:26:54;16.90;54.80
70079;DHT22;57451;52.496;13.456;2022-07-29T04:29:22;16.90;55.40
70079;DHT22;57451;52.496;13.456;2022-07-29T04:31:48;16.90;55.80
70079;DHT22;57451;52.496;13.456;2022-07-29T04:34:14;16.90;55.90
70079;DHT22;57451;52.496;13.456;2022-07-29T04:36:40;16.90;55.80
70079;DHT22;57451;52.496;13.456;2022-07-29T04:39:06;16.90;56.10
70079;DHT22;57451;52.496;13.456;2022-07-29T04:41:32;16.90;55.90
70079;DHT22;57451;52.496;13.456;2022-07-29T04:43:59;16.90;54.90
70079;DHT22;57451;52.496;13.456;2022-07-29T04:46:28;17.00;55.00
70079;DHT22;57451;52.496;13.456;2022-07-29T04:48:54;17.00;55.90
70079;DHT22;57451;52.496;13.456;2022-07-29T04:51:20;17.00;55.50
70079;DHT22;57451;52.496;13.456;2022-07-29T04:53:46;17.00;55.00
70079;DHT22;57451;52.496;13.456;2022-07-29T04:56:12;17.00;55.20
70079;DHT22;57451;52.496;13.456;2022-07-29T04:58:38;17.00;55.30
70079;DHT22;57451;52.496;13.456;2022-07-29T05:01:04;17.00;55.50
70079;DHT22;57451;52.496;13.456;2022-07-29T05:03:32;17.00;54.80
70079;DHT22;57451;52.496;13.456;2022-07-29T05:05:58;17.10;54.60
70079;DHT22;57451;52.496;13.456;2022-07-29T05:08:24;17.00;55.70
70079;DHT22;57451;52.496;13.456;2022-07-29T05:10:50;17.10;55.70
70079;DHT22;57451;52.496;13.456;2022-07-29T05:13:16;17.10;55.00
70079;DHT22;57451;52.496;13.456;2022-07-29T05:15:42;17.10;55.00
70079;DHT22;57451;52.496;13.456;2022-07-29T05:18:08;17.10;55.30
70079;DHT22;57451;52.496;13.456;2022-07-29T05:20:36;17.10;55.40
70079;DHT22;57451;52.496;13.456;2022-07-29T05:23:03;17.20;54.90
70079;DHT22;57451;52.496;13.456;2022-07-29T05:25:29;17.20;54.80
70079;DHT22;57451;52.496;13.456;2022-07-29T05:27:56;17.20;55.00
70079;DHT22;57451;52.496;13.456;2022-07-29T05:30:23;17.20;55.20
70079;DHT22;57451;52.496;13.456;2022-07-29T05:32:49;17.20;54.60
70079;DHT22;57451;52.496;13.456;2022-07-29T05:35:16;17.20;55.00
70079;DHT22;57451;52.496;13.456;2022-07-29T05:37:43;17.30;55.10
70079;DHT22;57451;52.496;13.456;2022-07-29T05:40:10;17.30;55.00
70079;DHT22;57451;52.496;13.456;2022-07-29T05:42:36;17.30;54.60
70079;DHT22;57451;52.496;13.456;2022-07-29T05:45:02;17.30;54.40
70079;DHT22;57451;52.496;13.456;2022-07-29T05:47:29;17.40;54.50
70079;DHT22;57451;52.496;13.456;2022-07-29T05:49:55;17.40;54.70
70079;DHT22;57451;52.496;13.456;2022-07-29T05:52:21;17.40;54.50
70079;DHT22;57451;52.496;13.456;2022-07-29T05:54:49;17.40;54.20
70079;DHT22;57451;52.496;13.456;2022-07-29T05:57:15;17.40;54.40
70079;DHT22;57451;52.496;13.456;2022-07-29T05:59:42;17.40;53.80
70079;DHT22;57451;52.496;13.456;2022-07-29T06:02:08;17.50;54.60
70079;DHT22;57451;52.496;13.456;2022-07-29T06:04:34;17.50;54.50
70079;DHT22;57451;52.496;13.456;2022-07-29T06:07:00;17.60;54.40
70079;DHT22;57451;52.496;13.456;2022-07-29T06:09:27;17.70;54.30
70079;DHT22;57451;52.496;13.456;2022-07-29T06:11:55;17.70;54.20
70079;DHT22;57451;52.496;13.456;2022-07-29T06:14:21;17.80;54.00
70079;DHT22;57451;52.496;13.456;2022-07-29T06:16:47;17.90;54.30
70079;DHT22;57451;52.496;13.456;2022-07-29T06:19:13;17.90;54.40
70079;DHT22;57451;52.496;13.456;2022-07-29T06:21:41;18.00;54.40
70079;DHT22;57451;52.496;13.456;2022-07-29T06:24:07;18.10;54.50
70079;DHT22;57451;52.496;13.456;2022-07-29T06:26:33;18.20;55.10
70079;DHT22;57451;52.496;13.456;2022-07-29T06:29:01;18.30;54.30
70079;DHT22;57451;52.496;13.456;2022-07-29T06:31:27;18.30;53.90
70079;DHT22;57451;52.496;13.456;2022-07-29T06:33:53;18.40;53.40
70079;DHT22;57451;52.496;13.456;2022-07-29T06:36:19;18.50;53.80
70079;DHT22;57451;52.496;13.456;2022-07-29T06:38:45;18.50;53.00
70079;DHT22;57451;52.496;13.456;2022-07-29T06:41:12;18.60;53.00
70079;DHT22;57451;52.496;13.456;2022-07-29T06:43:43;18.70;52.30
70079;DHT22;57451;52.496;13.456;2022-07-29T06:46:12;18.70;52.70
70079;DHT22;57451;52.496;13.456;2022-07-29T06:48:40;18.80;52.50
70079;DHT22;57451;52.496;13.456;2022-07-29T06:51:08;18.90;52.50
70079;DHT22;57451;52.496;13.456;2022-07-29T06:53:35;18.90;52.10
70079;DHT22;57451;52.496;13.456;2022-07-29T06:56:02;19.00;51.80
70079;DHT22;57451;52.496;13.456;2022-07-29T06:58:29;19.10;51.60
70079;DHT22;57451;52.496;13.456;2022-07-29T07:00:55;19.10;51.80
70079;DHT22;57451;52.496;13.456;2022-07-29T07:03:23;19.10;51.90
70079;DHT22;57451;52.496;13.456;2022-07-29T07:05:51;19.20;51.50
70079;DHT22;57451;52.496;13.456;2022-07-29T07:08:17;19.20;51.10
70079;DHT22;57451;52.496;13.456;2022-07-29T07:10:45;19.30;51.50
70079;DHT22;57451;52.496;13.456;2022-07-29T07:13:11;19.30;51.50
70079;DHT22;57451;52.496;13.456;2022-07-29T07:15:38;19.30;51.40
70079;DHT22;57451;52.496;13.456;2022-07-29T07:18:05;19.40;51.90
70079;DHT22;57451;52.496;13.456;2022-07-29T07:20:33;19.50;52.00
70079;DHT22;57451;52.496;13.456;2022-07-29T07:22:59;19.50;52.10
70079;DHT22;57451;52.496;13.456;2022-07-29T07:25:26;19.70;51.70
70079;DHT22;57451;52.496;13.456;2022-07-29T07:27:52;19.70;51.40
70079;DHT22;57451;52.496;13.456;2022-07-29T07:30:18;19.80;51.50
70079;DHT22;57451;52.496;13.456;2022-07-29T07:32:44;19.90;51.80
70079;DHT22;57451;52.496;13.456;2022-07-29T07:35:10;20.00;52.10
70079;DHT22;57451;52.496;13.456;2022-07-29T07:37:39;20.00;51.30
70079;DHT22;57451;52.496;13.456;2022-07-29T07:40:08;20.10;50.50
70079;DHT22;57451;52.496;13.456;2022-07-29T07:42:34;20.20;50.90
70079;DHT22;57451;52.496;13.456;2022-07-29T07:45:00;20.30;50.90
70079;DHT22;57451;52.496;13.456;2022-07-29T07:47:26;20.40;51.60
70079;DHT22;57451;52.496;13.456;2022-07-29T07:49:53;20.50;50.70
70079;DHT22;57451;52.496;13.456;2022-07-29T07:52:20;20.60;51.00
70079;DHT22;57451;52.496;13.456;2022-07-29T07:54:49;20.70;50.10
70079;DHT22;57451;52.496;13.456;2022-07-29T07:57:15;20.70;50.70
70079;DHT22;57451;52.496;13.456;2022-07-29T07:59:41;20.80;50.70
70079;DHT22;57451;52.496;13.456;2022-07-29T08:02:08;20.90;49.90
70079;DHT22;57451;52.496;13.456;2022-07-29T08:04:35;21.10;49.20
70079;DHT22;57451;52.496;13.456;2022-07-29T08:07:02;21.20;48.90
70079;DHT22;57451;52.496;13.456;2022-07-29T08:09:29;21.30;48.30
70079;DHT22;57451;52.496;13.456;2022-07-29T08:11:57;21.40;48.30
70079;DHT22;57451;52.496;13.456;2022-07-29T08:14:24;21.40;47.80
70079;DHT22;57451;52.496;13.456;2022-07-29T08:16:50;21.60;48.90
70079;DHT22;57451;52.496;13.456;2022-07-29T08:19:17;21.70;47.40
70079;DHT22;57451;52.496;13.456;2022-07-29T08:21:43;21.80;46.70
70079;DHT22;57451;52.496;13.456;2022-07-29T08:24:10;21.90;47.40
70079;DHT22;57451;52.496;13.456;2022-07-29T08:26:56;22.00;48.00
70079;DHT22;57451;52.496;13.456;2022-07-29T08:29:22;22.10;47.30
70079;DHT22;57451;52.496;13.456;2022-07-29T08:31:48;22.20;46.40
70079;DHT22;57451;52.496;13.456;2022-07-29T08:34:14;22.40;47.80
70079;DHT22;57451;52.496;13.456;2022-07-29T08:36:40;22.50;47.40
70079;DHT22;57451;52.496;13.456;2022-07-29T08:39:07;22.60;45.50
70079;DHT22;57451;52.496;13.456;2022-07-29T08:41:33;22.70;45.40
70079;DHT22;57451;52.496;13.456;2022-07-29T08:44:00;22.80;45.80
70079;DHT22;57451;52.496;13.456;2022-07-29T08:46:26;22.90;45.00
70079;DHT22;57451;52.496;13.456;2022-07-29T08:48:53;22.90;44.90
70079;DHT22;57451;52.496;13.456;2022-07-29T08:51:21;23.00;44.30
70079;DHT22;57451;52.496;13.456;2022-07-29T08:53:49;23.10;44.80
70079;DHT22;57451;52.496;13.456;2022-07-29T08:56:16;23.20;44.80
70079;DHT22;57451;52.496;13.456;2022-07-29T08:58:44;23.20;44.00
70079;DHT22;57451;52.496;13.456;2022-07-29T09:01:14;23.30;44.60
70079;DHT22;57451;52.496;13.456;2022-07-29T09:03:43;23.40;44.50
70079;DHT22;57451;52.496;13.456;2022-07-29T09:06:13;23.40;45.00
70079;DHT22;57451;52.496;13.456;2022-07-29T09:08:39;23.50;43.50
70079;DHT22;57451;52.496;13.456;2022-07-29T09:11:06;23.50;43.20
70079;DHT22;57451;52.496;13.456;2022-07-29T09:13:33;23.60;43.10
70079;DHT22;57451;52.496;13.456;2022-07-29T09:15:59;23.60;43.80
70079;DHT22;57451;52.496;13.456;2022-07-29T09:18:35;23.60;43.60
70079;DHT22;57451;52.496;13.456;2022-07-29T09:21:03;23.60;44.50
70079;DHT22;57451;52.496;13.456;2022-07-29T09:24:02;23.70;43.80
70079;DHT22;57451;52.496;13.456;2022-07-29T09:26:29;23.80;43.60
70079;DHT22;57451;52.496;13.456;2022-07-29T09:28:56;23.90;43.70
70079;DHT22;57451;52.496;13.456;2022-07-29T09:31:32;24.00;41.60
70079;DHT22;57451;52.496;13.456;2022-07-29T09:34:00;24.10;40.40
70079;DHT22;57451;52.496;13.456;2022-07-29T09:36:27;24.10;41.80
70079;DHT22;57451;52.496;13.456;2022-07-29T09:38:58;24.20;41.50
70079;DHT22;57451;52.496;13.456;2022-07-29T09:41:27;24.30;41.90
70079;DHT22;57451;52.496;13.456;2022-07-29T09:43:55;24.30;41.60
70079;DHT22;57451;52.496;13.456;2022-07-29T09:46:21;24.40;41.10
70079;DHT22;57451;52.496;13.456;2022-07-29T09:49:07;24.40;41.50
70079;DHT22;57451;52.496;13.456;2022-07-29T09:51:34;24.50;40.60
70079;DHT22;57451;52.496;13.456;2022-07-29T09:54:01;24.50;40.80
70079;DHT22;57451;52.496;13.456;2022-07-29T09:56:40;24.60;40.80
70079;DHT22;57451;52.496;13.456;2022-07-29T09:59:06;24.60;40.40
70079;DHT22;57451;52.496;13.456;2022-07-29T10:01:33;24.70;39.20
70079;DHT22;57451;52.496;13.456;2022-07-29T10:04:00;24.70;40.20
70079;DHT22;57451;52.496;13.456;2022-07-29T10:06:27;24.80;40.20
70079;DHT22;57451;52.496;13.456;2022-07-29T10:09:07;24.80;40.90
70079;DHT22;57451;52.496;13.456;2022-07-29T10:11:33;24.90;38.30
70079;DHT22;57451;52.496;13.456;2022-07-29T10:14:02;25.00;37.50
70079;DHT22;57451;52.496;13.456;2022-07-29T10:16:29;25.20;38.50
70079;DHT22;57451;52.496;13.456;2022-07-29T10:18:58;25.30;38.60
70079;DHT22;57451;52.496;13.456;2022-07-29T10:21:25;25.40;38.30
70079;DHT22;57451;52.496;13.456;2022-07-29T10:23:53;25.50;37.60
70079;DHT22;57451;52.496;13.456;2022-07-29T10:26:19;25.60;37.70
70079;DHT22;57451;52.496;13.456;2022-07-29T10:28:46;25.70;37.10
70079;DHT22;57451;52.496;13.456;2022-07-29T10:31:19;25.80;36.80
70079;DHT22;57451;52.496;13.456;2022-07-29T10:33:54;25.90;36.90
70079;DHT22;57451;52.496;13.456;2022-07-29T10:36:35;25.90;36.50
70079;DHT22;57451;52.496;13.456;2022-07-29T10:39:15;26.00;37.10
70079;DHT22;57451;52.496;13.456;2022-07-29T10:42:02;26.00;37.50
70079;DHT22;57451;52.496;13.456;2022-07-29T10:44:30;26.10;37.00
70079;DHT22;57451;52.496;13.456;2022-07-29T10:46:57;26.10;36.20
70079;DHT22;57451;52.496;13.456;2022-07-29T10:49:24;26.20;37.20
70079;DHT22;57451;52.496;13.456;2022-07-29T10:52:09;26.30;37.50
70079;DHT22;57451;52.496;13.456;2022-07-29T10:54:42;26.30;36.50
70079;DHT22;57451;52.496;13.456;2022-07-29T10:57:12;26.40;35.50
70079;DHT22;57451;52.496;13.456;2022-07-29T10:59:43;26.40;36.60
70079;DHT22;57451;52.496;13.456;2022-07-29T11:02:42;26.50;36.10
70079;DHT22;57451;52.496;13.456;2022-07-29T11:05:11;26.60;35.90
70079;DHT22;57451;52.496;13.456;2022-07-29T11:07:40;26.70;35.80
70079;DHT22;57451;52.496;13.456;2022-07-29T11:10:26;26.70;35.50
70079;DHT22;57451;52.496;13.456;2022-07-29T11:12:52;26.70;36.10
70079;DHT22;57451;52.496;13.456;2022-07-29T11:15:21;26.70;36.50
70079;DHT22;57451;52.496;13.456;2022-07-29T11:18:07;26.70;36.50
70079;DHT22;57451;52.496;13.456;2022-07-29T11:20:41;26.80;36.80
70079;DHT22;57451;52.496;13.456;2022-07-29T11:23:22;26.70;35.30
70079;DHT22;57451;52.496;13.456;2022-07-29T11:26:16;26.70;35.10
70079;DHT22;57451;52.496;13.456;2022-07-29T11:28:58;26.70;35.70
70079;DHT22;57451;52.496;13.456;2022-07-29T11:31:34;26.70;36.60
70079;DHT22;57451;52.496;13.456;2022-07-29T11:34:17;26.70;36.60
70079;DHT22;57451;52.496;13.456;2022-07-29T11:39:44;26.70;37.00
70079;DHT22;57451;52.496;13.456;2022-07-29T11:42:45;26.80;36.60
70079;DHT22;57451;52.496;13.456;2022-07-29T11:45:14;26.90;37.30
70079;DHT22;57451;52.496;13.456;2022-07-29T11:47:47;26.90;36.60
70079;DHT22;57451;52.496;13.456;2022-07-29T11:50:15;27.00;37.80
70079;DHT22;57451;52.496;13.456;2022-07-29T11:52:44;27.10;36.70
70079;DHT22;57451;52.496;13.456;2022-07-29T11:55:15;27.20;37.50
70079;DHT22;57451;52.496;13.456;2022-07-29T11:57:50;27.30;36.90
70079;DHT22;57451;52.496;13.456;2022-07-29T12:00:28;27.40;37.00
70079;DHT22;57451;52.496;13.456;2022-07-29T12:02:55;27.50;37.40
70079;DHT22;57451;52.496;13.456;2022-07-29T12:05:34;27.60;37.70
70079;DHT22;57451;52.496;13.456;2022-07-29T12:08:05;27.70;38.00
70079;DHT22;57451;52.496;13.456;2022-07-29T12:10:32;27.80;37.50
70079;DHT22;57451;52.496;13.456;2022-07-29T12:12:59;27.90;37.60
70079;DHT22;57451;52.496;13.456;2022-07-29T12:15:26;28.00;36.80
70079;DHT22;57451;52.496;13.456;2022-07-29T12:17:52;28.00;36.40
70079;DHT22;57451;52.496;13.456;2022-07-29T12:20:23;28.10;36.50
70079;DHT22;57451;52.496;13.456;2022-07-29T12:22:50;28.20;37.40
70079;DHT22;57451;52.496;13.456;2022-07-29T12:25:16;28.20;35.90
70079;DHT22;57451;52.496;13.456;2022-07-29T12:27:44;28.20;36.60
70079;DHT22;57451;52.496;13.456;2022-07-29T12:30:14;28.30;36.20
70079;DHT22;57451;52.496;13.456;2022-07-29T12:32:42;28.30;36.70
70079;DHT22;57451;52.496;13.456;2022-07-29T12:35:11;28.40;36.30
70079;DHT22;57451;52.496;13.456;2022-07-29T12:37:41;28.40;35.90
70079;DHT22;57451;52.496;13.456;2022-07-29T12:40:09;28.50;35.40
70079;DHT22;57451;52.496;13.456;2022-07-29T12:42:36;28.60;35.80
70079;DHT22;57451;52.496;13.456;2022-07-29T12:45:04;28.50;36.70
70079;DHT22;57451;52.496;13.456;2022-07-29T12:47:32;28.60;36.20
70079;DHT22;57451;52.496;13.456;2022-07-29T12:50:09;28.50;36.30
70079;DHT22;57451;52.496;13.456;2022-07-29T12:52:35;28.50;35.70
70079;DHT22;57451;52.496;13.456;2022-07-29T12:55:02;28.50;36.00
70079;DHT22;57451;52.496;13.456;2022-07-29T12:57:29;28.60;35.60
70079;DHT22;57451;52.496;13.456;2022-07-29T13:00:00;28.60;35.60
70079;DHT22;57451;52.496;13.456;2022-07-29T13:02:26;28.60;35.90
70079;DHT22;57451;52.496;13.456;2022-07-29T13:04:58;28.70;35.70
70079;DHT22;57451;52.496;13.456;2022-07-29T13:07:25;28.80;35.30
70079;DHT22;57451;52.496;13.456;2022-07-29T13:09:53;28.80;34.80
70079;DHT22;57451;52.496;13.456;2022-07-29T13:12:20;28.80;35.30
70079;DHT22;57451;52.496;13.456;2022-07-29T13:14:47;28.80;34.60
70079;DHT22;57451;52.496;13.456;2022-07-29T13:17:15;28.80;34.60
70079;DHT22;57451;52.496;13.456;2022-07-29T13:19:43;28.70;35.10
70079;DHT22;57451;52.496;13.456;2022-07-29T13:22:12;28.80;36.40
70079;DHT22;57451;52.496;13.456;2022-07-29T13:24:48;28.80;35.90
70079;DHT22;57451;52.496;13.456;2022-07-29T13:27:15;28.90;35.20
70079;DHT22;57451;52.496;13.456;2022-07-29T13:29:41;28.90;35.40
70079;DHT22;57451;52.496;13.456;2022-07-29T13:32:07;29.00;35.70
70079;DHT22;57451;52.496;13.456;2022-07-29T13:34:33;29.10;34.70
70079;DHT22;57451;52.496;13.456;2022-07-29T13:37:00;29.20;35.70
70079;DHT22;57451;52.496;13.456;2022-07-29T13:39:27;29.30;35.70
70079;DHT22;57451;52.496;13.456;2022-07-29T13:41:53;29.40;36.10
70079;DHT22;57451;52.496;13.456;2022-07-29T13:44:20;29.40;35.50
70079;DHT22;57451;52.496;13.456;2022-07-29T13:46:46;29.50;35.40
70079;DHT22;57451;52.496;13.456;2022-07-29T13:49:12;29.50;35.60
70079;DHT22;57451;52.496;13.456;2022-07-29T13:51:38;29.70;34.60
70079;DHT22;57451;52.496;13.456;2022-07-29T13:54:05;29.70;34.50
70079;DHT22;57451;52.496;13.456;2022-07-29T13:56:32;29.80;34.30
70079;DHT22;57451;52.496;13.456;2022-07-29T13:58:59;29.90;34.80
70079;DHT22;57451;52.496;13.456;2022-07-29T14:01:26;29.90;34.20
70079;DHT22;57451;52.496;13.456;2022-07-29T14:03:53;29.90;34.40
70079;DHT22;57451;52.496;13.456;2022-07-29T14:06:19;30.00;34.70
70079;DHT22;57451;52.496;13.456;2022-07-29T14:08:45;30.10;34.90
70079;DHT22;57451;52.496;13.456;2022-07-29T14:11:11;30.10;35.40
70079;DHT22;57451;52.496;13.456;2022-07-29T14:13:39;30.20;34.10
70079;DHT22;57451;52.496;13.456;2022-07-29T14:16:05;30.20;35.10
70079;DHT22;57451;52.496;13.456;2022-07-29T14:18:33;30.30;34.40
70079;DHT22;57451;52.496;13.456;2022-07-29T14:20:59;30.30;33.50
70079;DHT22;57451;52.496;13.456;2022-07-29T14:23:25;30.40;35.00
70079;DHT22;57451;52.496;13.456;2022-07-29T14:25:51;30.40;34.60
70079;DHT22;57451;52.496;13.456;2022-07-29T14:28:17;30.40;35.00
70079;DHT22;57451;52.496;13.456;2022-07-29T14:30:45;30.50;35.10
70079;DHT22;57451;52.496;13.456;2022-07-29T14:33:11;30.60;34.70
70079;DHT22;57451;52.496;13.456;2022-07-29T14:35:38;30.60;35.00
70079;DHT22;57451;52.496;13.456;2022-07-29T14:38:04;30.60;35.00
70079;DHT22;57451;52.496;13.456;2022-07-29T14:40:30;30.70;34.90
70079;DHT22;57451;52.496;13.456;2022-07-29T14:42:56;30.80;33.40
70079;DHT22;57451;52.496;13.456;2022-07-29T14:45:23;30.90;33.10
70079;DHT22;57451;52.496;13.456;2022-07-29T14:47:50;30.90;33.90
70079;DHT22;57451;52.496;13.456;2022-07-29T14:50:16;31.00;33.70
70079;DHT22;57451;52.496;13.456;2022-07-29T14:52:44;31.00;34.60
70079;DHT22;57451;52.496;13.456;2022-07-29T14:55:10;31.00;33.60
70079;DHT22;57451;52.496;13.456;2022-07-29T14:57:36;31.10;33.40
70079;DHT22;57451;52.496;13.456;2022-07-29T15:00:03;31.20;33.70
70079;DHT22;57451;52.496;13.456;2022-07-29T15:02:30;31.10;33.40
70079;DHT22;57451;52.496;13.456;2022-07-29T15:04:58;31.10;33.90
70079;DHT22;57451;52.496;13.456;2022-07-29T15:07:24;31.10;34.00
70079;DHT22;57451;52.496;13.456;2022-07-29T15:09:50;31.20;33.20
70079;DHT22;57451;52.496;13.456;2022-07-29T15:12:16;31.20;34.10
70079;DHT22;57451;52.496;13.456;2022-07-29T15:14:42;31.20;33.20
70079;DHT22;57451;52.496;13.456;2022-07-29T15:17:08;31.20;34.00
70079;DHT22;57451;52.496;13.456;2022-07-29T15:19:35;31.20;32.30
70079;DHT22;57451;52.496;13.456;2022-07-29T15:22:02;31.20;32.70
70079;DHT22;57451;52.496;13.456;2022-07-29T15:24:30;31.20;33.40
70079;DHT22;57451;52.496;13.456;2022-07-29T15:26:56;31.20;32.20